Time;durP1;ratioP1;P1;durP2;ratioP2;P2;SDS_P1;SDS_P2;PMS_P1;PMS_P2;Temp;Humidity;BMP_temperature;BMP_pressure;BME280_temperature;BME280_humidity;BME280_pressure;Samples;Min_cycle;Max_cycle;Signal;HPM_P1;HPM_P2
2023/03/27 00:02:22;;;;;;;;;;;;;;;;;;2221974;66;1131;-16
2023/03/27 00:04:53;;;;;;;;;;;;;;;;;;2221689;66;1301;-16
2023/03/27 00:07:23;;;;;;;;;;;;;;;;;;2222227;66;1757;-16
2023/03/27 00:09:53;;;;;;;;;;;;;;;;;;2222164;66;1150;-16
2023/03/27 00:12:23;;;;;;;;;;;;;;;;;;2221300;66;1244;-16
2023/03/27 00:14:54;;;;;;;;;;;;;;;;;;2222499;66;1191;-16
2023/03/27 00:17:24;;;;;;;;;;;;;;;;;;2222305;58;1932;-16
2023/03/27 00:19:54;;;;;;;;;;;;;;;;;;2222967;66;1694;-16
2023/03/27 00:22:24;;;;;;;;;;;;;;;;;;2217055;66;1443;-17
2023/03/27 00:24:55;;;;;;;;;;;;;;;;;;2220228;66;1311;-17
2023/03/27 00:27:25;;;;;;;;;;;;;;;;;;2223117;66;1152;-16
2023/03/27 00:29:56;;;;;;;;;;;;;;;;;;2223377;58;1252;-17
2023/03/27 00:32:26;;;;;;;;;;;;;;;;;;2223180;66;1661;-16
2023/03/27 00:35:00;;;;;;;;;;;;;;;;;;2223328;66;1659;-17
2023/03/27 00:37:31;;;;;;;;;;;;;;;;;;2222622;66;1992;-16
2023/03/27 00:40:06;;;;;;;;;;;;;;;;;;2215834;66;2082;-17
2023/03/27 00:42:37;;;;;;;;;;;;;;;;;;2223901;66;1311;-17
2023/03/27 00:45:14;;;;;;;;;;;;;;;;;;2223306;66;1678;-16
2023/03/27 00:47:46;;;;;;;;;;;;;;;;;;2222111;66;1687;-17
2023/03/27 00:50:19;;;;;;;;;;;;;;;;;;2223106;66;1845;-17
2023/03/27 00:52:52;;;;;;;;;;;;;;;;;;2223217;66;1987;-18
2023/03/27 00:55:25;;;;;;;;;;;;;;;;;;2223006;66;1183;-16
2023/03/27 00:58:04;;;;;;;;;;;;;;;;;;2222973;66;2007;-17
2023/03/27 01:00:34;;;;;;;;;;;;;;;;;;2222928;66;1683;-17
2023/03/27 01:03:06;;;;;;;;;;;;;;;;;;2223765;66;1267;-17
2023/03/27 01:05:37;;;;;;;;;;;;;;;;;;2222524;66;1438;-18
2023/03/27 01:08:08;;;;;;;;;;;;;;;;;;2223125;66;1552;-18
2023/03/27 01:10:57;;;;;;;;;;;;;;;;;;2222922;66;1401;-17
2023/03/27 01:13:39;;;;;;;;;;;;;;;;;;2223365;66;1831;-17
2023/03/27 01:16:15;;;;;;;;;;;;;;;;;;2223539;66;1924;-18
2023/03/27 01:18:46;;;;;;;;;;;;;;;;;;2222965;66;1702;-17
2023/03/27 01:21:34;;;;;;;;;;;;;;;;;;2220065;66;1743;-17
2023/03/27 01:24:11;;;;;;;;;;;;;;;;;;2223399;66;1174;-17
2023/03/27 01:26:58;;;;;;;;;;;;;;;;;;2222737;66;1304;-17
2023/03/27 01:29:44;;;;;;;;;;;;;;;;;;2219811;66;1087;-18
2023/03/27 01:32:29;;;;;;;;;;;;;;;;;;2222626;66;1082;-17
2023/03/27 01:35:06;;;;;;;;;;;;;;;;;;2222656;66;1233;-16
2023/03/27 01:37:55;;;;;;;;;;;;;;;;;;2222621;66;1948;-16
2023/03/27 01:40:35;;;;;;;;;;;;;;;;;;2223141;66;1124;-17
2023/03/27 01:43:14;;;;;;;;;;;;;;;;;;2222408;66;1286;-17
2023/03/27 01:45:56;;;;;;;;;;;;;;;;;;2222814;66;1563;-18
2023/03/27 01:48:31;;;;;;;;;;;;;;;;;;2223033;66;984;-16
2023/03/27 01:51:05;;;;;;;;;;;;;;;;;;2222792;66;1141;-16
2023/03/27 01:53:45;;;;;;;;;;;;;;;;;;2223059;66;1660;-16
2023/03/27 01:56:25;;;;;;;;;;;;;;;;;;2221469;58;1928;-16
2023/03/27 01:58:58;;;;;;;;;;;;;;;;;;2222855;66;1779;-16
2023/03/27 02:01:34;;;;;;;;;;;;;;;;;;2222496;66;1201;-16
2023/03/27 02:04:08;;;;;;;;;;;;;;;;;;2222768;66;1240;-16
2023/03/27 02:06:42;;;;;;;;;;;;;;;;;;2223304;66;1894;-16
2023/03/27 02:09:21;;;;;;;;;;;;;;;;;;2221498;66;1118;-16
2023/03/27 02:11:55;;;;;;;;;;;;;;;;;;2222623;66;1174;-16
2023/03/27 02:14:28;;;;;;;;;;;;;;;;;;2222981;58;1489;-16
2023/03/27 02:17:00;;;;;;;;;;;;;;;;;;2222515;58;2007;-16
2023/03/27 02:19:36;;;;;;;;;;;;;;;;;;2222605;66;1661;-16
2023/03/27 02:22:06;;;;;;;;;;;;;;;;;;2222798;66;1776;-16
2023/03/27 02:24:37;;;;;;;;;;;;;;;;;;2223183;66;1543;-16
2023/03/27 02:27:12;;;;;;;;;;;;;;;;;;2219471;66;1331;-16
2023/03/27 02:29:51;;;;;;;;;;;;;;;;;;2223492;66;1587;-16
2023/03/27 02:32:27;;;;;;;;;;;;;;;;;;2223013;66;1915;-17
2023/03/27 02:35:07;;;;;;;;;;;;;;;;;;2223331;66;1406;-18
2023/03/27 02:37:50;;;;;;;;;;;;;;;;;;2222771;66;1924;-17
2023/03/27 02:40:20;;;;;;;;;;;;;;;;;;2219245;58;2940;-17
2023/03/27 02:43:00;;;;;;;;;;;;;;;;;;2222252;66;1248;-17
2023/03/27 02:45:39;;;;;;;;;;;;;;;;;;2222586;66;1120;-17
2023/03/27 02:48:16;;;;;;;;;;;;;;;;;;2222207;66;2196;-17
2023/03/27 02:50:52;;;;;;;;;;;;;;;;;;2216731;66;1831;-17
2023/03/27 02:53:24;;;;;;;;;;;;;;;;;;2223604;66;1211;-16
2023/03/27 02:55:57;;;;;;;;;;;;;;;;;;2219309;66;1941;-17
2023/03/27 02:58:32;;;;;;;;;;;;;;;;;;2218462;66;1346;-18
2023/03/27 03:01:08;;;;;;;;;;;;;;;;;;2221967;66;1785;-17
2023/03/27 03:03:41;;;;;;;;;;;;;;;;;;2222870;66;1068;-17
2023/03/27 03:06:13;;;;;;;;;;;;;;;;;;2222147;66;1781;-16
2023/03/27 03:08:45;;;;;;;;;;;;;;;;;;2222993;66;1138;-16
2023/03/27 03:11:15;;;;;;;;;;;;;;;;;;2218375;66;1144;-17
2023/03/27 03:13:46;;;;;;;;;;;;;;;;;;2222545;58;1796;-16
2023/03/27 03:16:16;;;;;;;;;;;;;;;;;;2223108;66;1996;-17
2023/03/27 03:18:46;;;;;;;;;;;;;;;;;;2222740;58;1500;-17
2023/03/27 03:21:16;;;;;;;;;;;;;;;;;;2222564;66;1887;-16
2023/03/27 03:23:47;;;;;;;;;;;;;;;;;;2223423;66;1214;-16
2023/03/27 03:26:18;;;;;;;;;;;;;;;;;;2223018;66;1253;-16
2023/03/27 03:28:51;;;;;;;;;;;;;;;;;;2221933;66;1658;-17
2023/03/27 03:31:21;;;;;;;;;;;;;;;;;;2222075;66;1320;-17
2023/03/27 03:33:51;;;;;;;;;;;;;;;;;;2219266;66;1415;-17
2023/03/27 03:36:22;;;;;;;;;;;;;;;;;;2222933;66;1929;-16
2023/03/27 03:38:52;;;;;;;;;;;;;;;;;;2222730;66;1361;-16
2023/03/27 03:41:23;;;;;;;;;;;;;;;;;;2222620;66;1105;-16
2023/03/27 03:43:53;;;;;;;;;;;;;;;;;;2222444;66;1853;-16
2023/03/27 03:46:23;;;;;;;;;;;;;;;;;;2222290;66;1257;-17
2023/03/27 03:48:53;;;;;;;;;;;;;;;;;;2221556;66;1214;-16
2023/03/27 03:51:23;;;;;;;;;;;;;;;;;;2222902;66;1267;-16
2023/03/27 03:53:54;;;;;;;;;;;;;;;;;;2222880;66;1084;-16
2023/03/27 03:56:26;;;;;;;;;;;;;;;;;;2222943;66;1932;-17
2023/03/27 03:58:56;;;;;;;;;;;;;;;;;;2219044;66;1325;-17
2023/03/27 04:01:27;;;;;;;;;;;;;;;;;;2223304;66;1348;-16
2023/03/27 04:03:57;;;;;;;;;;;;;;;;;;2217620;66;1371;-16
2023/03/27 04:06:29;;;;;;;;;;;;;;;;;;2223429;66;1190;-16
2023/03/27 04:08:59;;;;;;;;;;;;;;;;;;2223068;66;1218;-16
2023/03/27 04:11:30;;;;;;;;;;;;;;;;;;2222161;66;1792;-16
2023/03/27 04:14:00;;;;;;;;;;;;;;;;;;2223464;66;1670;-16
2023/03/27 04:16:30;;;;;;;;;;;;;;;;;;2222367;66;1935;-16
2023/03/27 04:19:01;;;;;;;;;;;;;;;;;;2218950;59;1706;-16
2023/03/27 04:21:32;;;;;;;;;;;;;;;;;;2223169;66;1381;-16
2023/03/27 04:24:02;;;;;;;;;;;;;;;;;;2223211;66;1278;-16
2023/03/27 04:26:34;;;;;;;;;;;;;;;;;;2217091;66;1601;-16
2023/03/27 04:29:09;;;;;;;;;;;;;;;;;;2222466;66;1416;-16
2023/03/27 04:31:39;;;;;;;;;;;;;;;;;;2223464;66;1162;-16
2023/03/27 04:34:10;;;;;;;;;;;;;;;;;;2222436;66;2052;-16
2023/03/27 04:36:41;;;;;;;;;;;;;;;;;;2223640;66;1998;-16
2023/03/27 04:39:11;;;;;;;;;;;;;;;;;;2223472;66;1079;-16
2023/03/27 04:41:47;;;;;;;;;;;;;;;;;;2223581;66;1754;-16
2023/03/27 04:44:17;;;;;;;;;;;;;;;;;;2223209;66;1669;-16
2023/03/27 04:46:47;;;;;;;;;;;;;;;;;;2223624;58;1853;-16
2023/03/27 04:49:19;;;;;;;;;;;;;;;;;;2220397;66;1164;-16
2023/03/27 04:51:49;;;;;;;;;;;;;;;;;;2219992;66;1310;-16
2023/03/27 04:54:21;;;;;;;;;;;;;;;;;;2223309;66;1279;-16
2023/03/27 04:56:52;;;;;;;;;;;;;;;;;;2219585;66;1933;-16
2023/03/27 04:59:22;;;;;;;;;;;;;;;;;;2223038;66;1688;-16
2023/03/27 05:01:52;;;;;;;;;;;;;;;;;;2220032;66;1855;-16
2023/03/27 05:04:25;;;;;;;;;;;;;;;;;;2223249;66;1788;-16
2023/03/27 05:06:56;;;;;;;;;;;;;;;;;;2219422;66;1101;-16
2023/03/27 05:09:26;;;;;;;;;;;;;;;;;;2223209;66;1213;-16
2023/03/27 05:11:56;;;;;;;;;;;;;;;;;;2220536;66;1148;-16
2023/03/27 05:14:26;;;;;;;;;;;;;;;;;;2222575;58;1957;-16
2023/03/27 05:16:59;;;;;;;;;;;;;;;;;;2219621;58;1935;-16
2023/03/27 05:19:29;;;;;;;;;;;;;;;;;;2222642;66;1129;-16
2023/03/27 05:22:00;;;;;;;;;;;;;;;;;;2223823;66;1390;-16
2023/03/27 05:24:30;;;;;;;;;;;;;;;;;;2216964;59;1956;-16
2023/03/27 05:27:00;;;;;;;;;;;;;;;;;;2223552;66;1177;-16
2023/03/27 05:29:30;;;;;;;;;;;;;;;;;;2223477;66;1593;-16
2023/03/27 05:32:01;;;;;;;;;;;;;;;;;;2217836;66;1272;-16
2023/03/27 05:34:33;;;;;;;;;;;;;;;;;;2222858;66;1231;-16
2023/03/27 05:37:04;;;;;;;;;;;;;;;;;;2223226;58;1935;-16
2023/03/27 05:39:35;;;;;;;;;;;;;;;;;;2222103;66;1124;-16
2023/03/27 05:42:05;;;;;;;;;;;;;;;;;;2219775;66;3251;-16
2023/03/27 05:44:36;;;;;;;;;;;;;;;;;;2222938;66;1224;-16
2023/03/27 05:47:06;;;;;;;;;;;;;;;;;;2222992;66;1150;-16
2023/03/27 05:49:36;;;;;;;;;;;;;;;;;;2223639;66;1509;-16
2023/03/27 05:52:07;;;;;;;;;;;;;;;;;;2223118;66;1648;-16
2023/03/27 05:54:37;;;;;;;;;;;;;;;;;;2219604;66;1151;-16
2023/03/27 05:57:07;;;;;;;;;;;;;;;;;;2222608;66;1961;-16
2023/03/27 05:59:38;;;;;;;;;;;;;;;;;;2219477;66;1319;-16
2023/03/27 06:02:09;;;;;;;;;;;;;;;;;;2223016;66;1130;-16
2023/03/27 06:04:41;;;;;;;;;;;;;;;;;;2217163;66;1963;-16
2023/03/27 06:07:11;;;;;;;;;;;;;;;;;;2223213;66;1413;-16
2023/03/27 06:09:41;;;;;;;;;;;;;;;;;;2222956;66;1318;-16
2023/03/27 06:12:11;;;;;;;;;;;;;;;;;;2223136;66;1313;-16
2023/03/27 06:14:42;;;;;;;;;;;;;;;;;;2222955;66;1284;-16
2023/03/27 06:17:12;;;;;;;;;;;;;;;;;;2222257;58;1940;-16
2023/03/27 06:19:43;;;;;;;;;;;;;;;;;;2222765;66;1867;-16
2023/03/27 06:22:13;;;;;;;;;;;;;;;;;;2219756;66;1288;-16
2023/03/27 06:24:43;;;;;;;;;;;;;;;;;;2220529;62;1262;-16
2023/03/27 06:27:13;;;;;;;;;;;;;;;;;;2222106;66;1477;-16
2023/03/27 06:29:43;;;;;;;;;;;;;;;;;;2223005;66;1102;-16
2023/03/27 06:32:15;;;;;;;;;;;;;;;;;;2222346;66;1427;-17
2023/03/27 06:34:48;;;;;;;;;;;;;;;;;;2223027;66;2025;-16
2023/03/27 06:37:19;;;;;;;;;;;;;;;;;;2222635;66;1930;-16
2023/03/27 06:39:49;;;;;;;;;;;;;;;;;;2223060;66;1849;-16
2023/03/27 06:42:19;;;;;;;;;;;;;;;;;;2222895;66;1491;-16
2023/03/27 06:44:50;;;;;;;;;;;;;;;;;;2222292;66;1754;-16
2023/03/27 06:47:21;;;;;;;;;;;;;;;;;;2222837;66;1142;-16
2023/03/27 06:49:51;;;;;;;;;;;;;;;;;;2222984;66;1832;-16
2023/03/27 06:52:21;;;;;;;;;;;;;;;;;;2223007;66;1052;-16
2023/03/27 06:54:52;;;;;;;;;;;;;;;;;;2222746;59;1772;-16
2023/03/27 06:57:22;;;;;;;;;;;;;;;;;;2222856;66;1990;-16
2023/03/27 06:59:55;;;;;;;;;;;;;;;;;;2223276;66;1896;-16
2023/03/27 07:02:25;;;;;;;;;;;;;;;;;;2221340;66;1645;-16
2023/03/27 07:04:55;;;;;;;;;;;;;;;;;;2222827;66;1134;-16
2023/03/27 07:07:27;;;;;;;;;;;;;;;;;;2222810;66;1755;-16
2023/03/27 07:09:57;;;;;;;;;;;;;;;;;;2219546;66;1668;-16
2023/03/27 07:12:31;;;;;;;;;;;;;;;;;;2223027;59;1464;-16
2023/03/27 07:15:01;;;;;;;;;;;;;;;;;;2223097;66;1321;-16
2023/03/27 07:17:34;;;;;;;;;;;;;;;;;;2221670;58;1996;-16
2023/03/27 07:20:06;;;;;;;;;;;;;;;;;;2222839;66;1930;-16
2023/03/27 07:22:36;;;;;;;;;;;;;;;;;;2221853;66;1781;-17
2023/03/27 07:25:06;;;;;;;;;;;;;;;;;;2222795;66;1665;-17
2023/03/27 07:27:37;;;;;;;;;;;;;;;;;;2223130;66;1630;-17
2023/03/27 07:30:10;;;;;;;;;;;;;;;;;;2224130;66;1617;-17
2023/03/27 07:32:41;;;;;;;;;;;;;;;;;;2223865;66;1778;-16
2023/03/27 07:35:12;;;;;;;;;;;;;;;;;;2222965;66;1656;-16
2023/03/27 07:37:42;;;;;;;;;;;;;;;;;;2223815;66;1938;-17
2023/03/27 07:40:12;;;;;;;;;;;;;;;;;;2222989;66;1325;-17
2023/03/27 07:42:44;;;;;;;;;;;;;;;;;;2223339;58;2068;-16
2023/03/27 07:45:18;;;;;;;;;;;;;;;;;;2223351;66;1710;-16
2023/03/27 07:47:49;;;;;;;;;;;;;;;;;;2223274;66;1862;-17
2023/03/27 07:50:20;;;;;;;;;;;;;;;;;;2223549;59;1381;-16
2023/03/27 07:52:50;;;;;;;;;;;;;;;;;;2223662;66;1781;-17
2023/03/27 07:55:21;;;;;;;;;;;;;;;;;;2223460;66;1226;-16
2023/03/27 07:57:53;;;;;;;;;;;;;;;;;;2222970;66;1945;-17
2023/03/27 08:00:24;;;;;;;;;;;;;;;;;;2223432;66;1675;-16
2023/03/27 08:03:02;;;;;;;;;;;;;;;;;;2220495;66;1609;-16
2023/03/27 08:05:32;;;;;;;;;;;;;;;;;;2219813;59;1744;-16
2023/03/27 08:08:05;;;;;;;;;;;;;;;;;;2223877;66;1355;-16
2023/03/27 08:10:36;;;;;;;;;;;;;;;;;;2222818;66;1396;-16
2023/03/27 08:13:07;;;;;;;;;;;;;;;;;;2223182;66;1299;-17
2023/03/27 08:15:37;;;;;;;;;;;;;;;;;;2223985;66;1660;-17
2023/03/27 08:18:10;;;;;;;;;;;;;;;;;;2219684;58;1989;-17
2023/03/27 08:20:41;;;;;;;;;;;;;;;;;;2220821;66;1646;-17
2023/03/27 08:23:11;;;;;;;;;;;;;;;;;;2223409;66;1346;-16
2023/03/27 08:25:41;;;;;;;;;;;;;;;;;;2224142;59;1730;-17
2023/03/27 08:28:11;;;;;;;;;;;;;;;;;;2219666;59;1189;-16
2023/03/27 08:30:42;;;;;;;;;;;;;;;;;;2219473;66;1780;-16
2023/03/27 08:33:12;;;;;;;;;;;;;;;;;;2223533;66;1679;-16
2023/03/27 08:35:46;;;;;;;;;;;;;;;;;;2223468;66;1954;-16
2023/03/27 08:38:16;;;;;;;;;;;;;;;;;;2223702;66;1992;-16
2023/03/27 08:40:47;;;;;;;;;;;;;;;;;;2223865;59;1628;-16
2023/03/27 08:43:21;;;;;;;;;;;;;;;;;;2226872;53;3667;-18
2023/03/27 08:45:54;;;;;;;;;;;;;;;;;;2222387;58;1888;-19
2023/03/27 08:48:30;;;;;;;;;;;;;;;;;;2223777;66;1964;-19
2023/03/27 08:51:04;;;;;;;;;;;;;;;;;;2224068;59;1346;-18
2023/03/27 08:53:47;;;;;;;;;;;;;;;;;;2224128;66;1291;-19
2023/03/27 08:56:19;;;;;;;;;;;;;;;;;;2215607;66;1976;-19
2023/03/27 08:58:49;;;;;;;;;;;;;;;;;;2219576;66;1424;-19
2023/03/27 09:01:44;;;;;;;;;;;;;;;;;;2219593;66;1282;-19
2023/03/27 09:04:31;;;;;;;;;;;;;;;;;;2222714;66;1293;-19
2023/03/27 09:07:01;;;;;;;;;;;;;;;;;;2223330;66;1504;-19
2023/03/27 09:09:43;;;;;;;;;;;;;;;;;;2223113;66;1364;-19
2023/03/27 09:12:16;;;;;;;;;;;;;;;;;;2223587;66;1952;-19
2023/03/27 09:15:10;;;;;;;;;;;;;;;;;;2222675;66;1784;-19
2023/03/27 09:17:44;;;;;;;;;;;;;;;;;;2214372;66;1928;-19
2023/03/27 09:20:19;;;;;;;;;;;;;;;;;;2222429;66;1464;-19
2023/03/27 09:22:53;;;;;;;;;;;;;;;;;;2218833;66;1373;-19
2023/03/27 09:25:38;;;;;;;;;;;;;;;;;;2219261;66;1320;-19
2023/03/27 09:28:16;;;;;;;;;;;;;;;;;;2218863;66;1485;-19
2023/03/27 09:30:47;;;;;;;;;;;;;;;;;;2222623;66;1401;-19
2023/03/27 09:33:18;;;;;;;;;;;;;;;;;;2217982;66;1388;-19
2023/03/27 09:35:51;;;;;;;;;;;;;;;;;;2222040;66;1319;-19
2023/03/27 09:38:35;;;;;;;;;;;;;;;;;;2222782;66;1997;-19
2023/03/27 09:41:16;;;;;;;;;;;;;;;;;;2222047;66;2106;-19
2023/03/27 09:43:55;;;;;;;;;;;;;;;;;;2222609;58;1608;-19
2023/03/27 09:46:27;;;;;;;;;;;;;;;;;;2221639;66;1367;-19
2023/03/27 09:49:08;;;;;;;;;;;;;;;;;;2221771;66;1328;-19
2023/03/27 09:51:52;;;;;;;;;;;;;;;;;;2218339;66;1711;-19
2023/03/27 09:54:23;;;;;;;;;;;;;;;;;;2221993;66;1675;-19
2023/03/27 09:57:03;;;;;;;;;;;;;;;;;;2221279;66;1912;-19
2023/03/27 09:59:39;;;;;;;;;;;;;;;;;;2221797;66;1105;-19
2023/03/27 10:02:41;;;;;;;;;;;;;;;;;;2218629;66;1636;-19
2023/03/27 10:05:16;;;;;;;;;;;;;;;;;;2211447;66;1340;-19
2023/03/27 10:07:50;;;;;;;;;;;;;;;;;;2222191;66;1380;-19
2023/03/27 10:10:20;;;;;;;;;;;;;;;;;;2222267;66;1022;-19
2023/03/27 10:12:54;;;;;;;;;;;;;;;;;;2222201;66;1247;-19
2023/03/27 10:15:35;;;;;;;;;;;;;;;;;;2221629;66;1792;-19
2023/03/27 10:18:26;;;;;;;;;;;;;;;;;;2221624;66;1931;-19
2023/03/27 10:20:58;;;;;;;;;;;;;;;;;;2221575;66;2328;-19
2023/03/27 10:23:42;;;;;;;;;;;;;;;;;;2218197;66;1177;-19
2023/03/27 10:26:15;;;;;;;;;;;;;;;;;;2223382;66;1600;-19
2023/03/27 10:28:48;;;;;;;;;;;;;;;;;;2223439;66;1237;-19
2023/03/27 10:31:27;;;;;;;;;;;;;;;;;;2223097;66;1197;-19
2023/03/27 10:34:00;;;;;;;;;;;;;;;;;;2222308;59;1624;-19
2023/03/27 10:36:39;;;;;;;;;;;;;;;;;;2222332;66;1928;-19
2023/03/27 10:39:10;;;;;;;;;;;;;;;;;;2222066;66;1668;-19
2023/03/27 10:41:41;;;;;;;;;;;;;;;;;;2222025;66;1505;-19
2023/03/27 10:44:15;;;;;;;;;;;;;;;;;;2217811;58;1312;-19
2023/03/27 10:46:46;;;;;;;;;;;;;;;;;;2223319;66;1306;-19
2023/03/27 10:49:37;;;;;;;;;;;;;;;;;;2219965;66;1935;-28
2023/03/27 10:52:16;;;;;;;;;;;;;;;;;;2222647;66;1865;-19
2023/03/27 10:54:53;;;;;;;;;;;;;;;;;;2220809;58;1714;-19
2023/03/27 10:57:36;;;;;;;;;;;;;;;;;;2217655;66;1937;-19
2023/03/27 11:00:21;;;;;;;;;;;;;;;;;;2218295;66;1228;-19
2023/03/27 11:03:15;;;;;;;;;;;;;;;;;;2221167;66;1487;-19
2023/03/27 11:05:47;;;;;;;;;;;;;;;;;;2221579;66;1297;-19
2023/03/27 11:08:23;;;;;;;;;;;;;;;;;;2221673;66;1317;-19
2023/03/27 11:10:56;;;;;;;;;;;;;;;;;;2221028;66;1354;-19
2023/03/27 11:13:29;;;;;;;;;;;;;;;;;;2217868;66;1262;-19
2023/03/27 11:16:06;;;;;;;;;;;;;;;;;;2221751;58;1923;-19
2023/03/27 11:18:39;;;;;;;;;;;;;;;;;;2221227;66;1105;-19
2023/03/27 11:21:12;;;;;;;;;;;;;;;;;;2221802;66;1879;-19
2023/03/27 11:23:48;;;;;;;;;;;;;;;;;;2222424;66;1260;-19
2023/03/27 11:26:18;;;;;;;;;;;;;;;;;;2221766;66;1196;-19
2023/03/27 11:29:08;;;;;;;;;;;;;;;;;;2218833;66;1668;-19
2023/03/27 11:31:47;;;;;;;;;;;;;;;;;;2217719;66;1207;-19
2023/03/27 11:34:31;;;;;;;;;;;;;;;;;;2222043;66;1364;-19
2023/03/27 11:37:10;;;;;;;;;;;;;;;;;;2216212;66;1961;-19
2023/03/27 11:39:45;;;;;;;;;;;;;;;;;;2220335;66;1410;-19
2023/03/27 11:42:23;;;;;;;;;;;;;;;;;;2222261;66;1808;-19
2023/03/27 11:44:53;;;;;;;;;;;;;;;;;;2220899;59;1716;-19
2023/03/27 11:47:39;;;;;;;;;;;;;;;;;;2221660;66;1694;-19
2023/03/27 11:50:22;;;;;;;;;;;;;;;;;;2221421;58;1339;-19
2023/03/27 11:52:55;;;;;;;;;;;;;;;;;;2222118;66;1673;-19
2023/03/27 11:55:25;;;;;;;;;;;;;;;;;;2221482;66;1171;-28
2023/03/27 11:58:11;;;;;;;;;;;;;;;;;;2221647;66;1917;-19
2023/03/27 12:00:51;;;;;;;;;;;;;;;;;;2217776;66;1747;-19
2023/03/27 12:03:32;;;;;;;;;;;;;;;;;;2217870;66;1382;-19
2023/03/27 12:06:21;;;;;;;;;;;;;;;;;;2216571;66;1751;-19
2023/03/27 12:09:12;;;;;;;;;;;;;;;;;;2221070;66;1118;-19
2023/03/27 12:11:44;;;;;;;;;;;;;;;;;;2221134;66;2039;-19
2023/03/27 12:14:27;;;;;;;;;;;;;;;;;;2221420;66;1240;-20
2023/03/27 12:17:03;;;;;;;;;;;;;;;;;;2222210;66;1936;-19
2023/03/27 12:19:42;;;;;;;;;;;;;;;;;;2222007;66;1133;-19
2023/03/27 12:22:21;;;;;;;;;;;;;;;;;;2221900;66;1205;-19
2023/03/27 12:25:12;;;;;;;;;;;;;;;;;;2222086;66;1211;-19
2023/03/27 12:27:43;;;;;;;;;;;;;;;;;;2218321;66;1681;-17
2023/03/27 12:30:31;;;;;;;;;;;;;;;;;;2221616;59;1824;-18
2023/03/27 12:33:11;;;;;;;;;;;;;;;;;;2220634;66;1192;-17
2023/03/27 12:35:44;;;;;;;;;;;;;;;;;;2221243;66;1745;-17
2023/03/27 12:38:22;;;;;;;;;;;;;;;;;;2220614;66;1914;-17
2023/03/27 12:41:01;;;;;;;;;;;;;;;;;;2220574;66;1266;-17
2023/03/27 12:43:38;;;;;;;;;;;;;;;;;;2221316;58;1447;-17
2023/03/27 12:46:10;;;;;;;;;;;;;;;;;;2222363;66;1651;-17
2023/03/27 12:48:53;;;;;;;;;;;;;;;;;;2218341;66;1317;-17
2023/03/27 12:51:47;;;;;;;;;;;;;;;;;;2222182;66;1109;-17
2023/03/27 12:54:20;;;;;;;;;;;;;;;;;;2218277;66;1521;-17
2023/03/27 12:56:57;;;;;;;;;;;;;;;;;;2221110;66;1933;-17
2023/03/27 12:59:27;;;;;;;;;;;;;;;;;;2221419;58;1148;-17
2023/03/27 13:02:04;;;;;;;;;;;;;;;;;;2222127;59;1615;-17
2023/03/27 13:04:54;;;;;;;;;;;;;;;;;;2222075;66;1192;-17
2023/03/27 13:07:47;;;;;;;;;;;;;;;;;;2221237;59;1656;-17
2023/03/27 13:10:36;;;;;;;;;;;;;;;;;;2222781;66;1140;-17
2023/03/27 13:13:25;;;;;;;;;;;;;;;;;;2216386;66;1646;-17
2023/03/27 13:16:07;;;;;;;;;;;;;;;;;;2221490;66;1113;-17
2023/03/27 13:18:53;;;;;;;;;;;;;;;;;;2222488;66;1126;-16
2023/03/27 13:21:42;;;;;;;;;;;;;;;;;;2221778;66;1122;-16
2023/03/27 13:24:28;;;;;;;;;;;;;;;;;;2221285;66;1209;-16
2023/03/27 13:27:13;;;;;;;;;;;;;;;;;;2221626;66;1159;-17
2023/03/27 13:29:47;;;;;;;;;;;;;;;;;;2221462;66;1604;-17
2023/03/27 13:32:37;;;;;;;;;;;;;;;;;;2218621;66;1842;-17
2023/03/27 13:35:20;;;;;;;;;;;;;;;;;;2218461;66;1705;-16
2023/03/27 13:37:50;;;;;;;;;;;;;;;;;;2220770;66;1927;-17
2023/03/27 13:40:25;;;;;;;;;;;;;;;;;;2221547;66;1638;-17
2023/03/27 13:43:00;;;;;;;;;;;;;;;;;;2223233;66;1746;-16
2023/03/27 13:45:45;;;;;;;;;;;;;;;;;;2222010;58;1470;-16
2023/03/27 13:48:24;;;;;;;;;;;;;;;;;;2220708;66;1174;-16
2023/03/27 13:51:06;;;;;;;;;;;;;;;;;;2221430;66;1134;-16
2023/03/27 13:53:55;;;;;;;;;;;;;;;;;;2221499;59;1218;-17
2023/03/27 13:56:29;;;;;;;;;;;;;;;;;;2217231;66;1942;-17
2023/03/27 13:59:08;;;;;;;;;;;;;;;;;;2221668;66;1355;-17
2023/03/27 14:01:51;;;;;;;;;;;;;;;;;;2221714;66;1794;-17
2023/03/27 14:04:28;;;;;;;;;;;;;;;;;;2221117;66;1265;-16
2023/03/27 14:06:58;;;;;;;;;;;;;;;;;;2215493;66;1254;-17
2023/03/27 14:09:31;;;;;;;;;;;;;;;;;;2221931;66;1845;-17
2023/03/27 14:12:14;;;;;;;;;;;;;;;;;;2218010;66;1436;-17
2023/03/27 14:15:06;;;;;;;;;;;;;;;;;;2221319;59;1531;-17
2023/03/27 14:17:55;;;;;;;;;;;;;;;;;;2217086;66;1921;-17
2023/03/27 14:20:30;;;;;;;;;;;;;;;;;;2220083;66;1133;-17
2023/03/27 14:23:05;;;;;;;;;;;;;;;;;;2216866;66;1800;-16
2023/03/27 14:25:42;;;;;;;;;;;;;;;;;;2220989;66;1719;-16
2023/03/27 14:28:30;;;;;;;;;;;;;;;;;;2221248;66;1190;-16
2023/03/27 14:31:04;;;;;;;;;;;;;;;;;;2220992;66;1614;-19
2023/03/27 14:33:37;;;;;;;;;;;;;;;;;;2217272;66;1227;-18
2023/03/27 14:36:15;;;;;;;;;;;;;;;;;;2219878;66;1987;-19
2023/03/27 14:38:46;;;;;;;;;;;;;;;;;;2217364;66;1633;-19
2023/03/27 14:41:21;;;;;;;;;;;;;;;;;;2220376;66;1958;-19
2023/03/27 14:43:52;;;;;;;;;;;;;;;;;;2223479;53;1758;-69
2023/03/27 14:46:23;;;;;;;;;;;;;;;;;;2226420;66;1178;-69
2023/03/27 14:48:56;;;;;;;;;;;;;;;;;;2227584;66;1289;-69
2023/03/27 14:51:33;;;;;;;;;;;;;;;;;;2224822;66;1075;-69
2023/03/27 14:54:07;;;;;;;;;;;;;;;;;;2225121;58;1206;-69
2023/03/27 14:56:40;;;;;;;;;;;;;;;;;;2224005;66;1929;-69
2023/03/27 14:59:12;;;;;;;;;;;;;;;;;;2226878;66;1280;-69
2023/03/27 15:01:45;;;;;;;;;;;;;;;;;;2227968;66;1223;-69
2023/03/27 15:04:16;;;;;;;;;;;;;;;;;;2226887;66;1129;-69
2023/03/27 15:06:48;;;;;;;;;;;;;;;;;;2227330;59;1216;-69
2023/03/27 15:09:19;;;;;;;;;;;;;;;;;;2222864;59;1447;-69
2023/03/27 15:11:54;;;;;;;;;;;;;;;;;;2227256;66;1083;-69
2023/03/27 15:14:26;;;;;;;;;;;;;;;;;;2226398;58;1577;-69
2023/03/27 15:16:59;;;;;;;;;;;;;;;;;;2225653;66;1991;-69
2023/03/27 15:19:31;;;;;;;;;;;;;;;;;;2222508;66;1709;-69
2023/03/27 15:22:03;;;;;;;;;;;;;;;;;;2226922;66;1082;-69
2023/03/27 15:24:48;;;;;;;;;;;;;;;;;;2226901;66;1110;-69
2023/03/27 15:27:21;;;;;;;;;;;;;;;;;;2226868;66;1261;-69
2023/03/27 15:29:59;;;;;;;;;;;;;;;;;;2226758;66;1223;-68
2023/03/27 15:32:40;;;;;;;;;;;;;;;;;;2227540;66;1107;-69
2023/03/27 15:35:13;;;;;;;;;;;;;;;;;;2227102;66;1254;-69
2023/03/27 15:37:44;;;;;;;;;;;;;;;;;;2227292;66;1941;-70
2023/03/27 15:40:35;;;;;;;;;;;;;;;;;;2227537;58;1125;-69
2023/03/27 15:43:12;;;;;;;;;;;;;;;;;;2227933;66;1048;-69
2023/03/27 15:45:57;;;;;;;;;;;;;;;;;;2228005;58;1286;-69
2023/03/27 15:48:27;;;;;;;;;;;;;;;;;;2226906;66;1267;-69
2023/03/27 15:50:59;;;;;;;;;;;;;;;;;;2226685;66;1011;-69
2023/03/27 15:53:30;;;;;;;;;;;;;;;;;;2226623;59;1223;-69
2023/03/27 15:56:02;;;;;;;;;;;;;;;;;;2227112;66;1112;-69
2023/03/27 15:58:38;;;;;;;;;;;;;;;;;;2227483;66;1998;-69
2023/03/27 16:01:11;;;;;;;;;;;;;;;;;;2227806;58;1273;-69
2023/03/27 16:03:41;;;;;;;;;;;;;;;;;;2227672;66;962;-69
2023/03/27 16:06:20;;;;;;;;;;;;;;;;;;2227933;66;1033;-69
2023/03/27 16:08:51;;;;;;;;;;;;;;;;;;2227532;58;1224;-69
2023/03/27 16:11:32;;;;;;;;;;;;;;;;;;2228315;66;1212;-69
2023/03/27 16:14:02;;;;;;;;;;;;;;;;;;2228322;66;1107;-70
2023/03/27 16:16:33;;;;;;;;;;;;;;;;;;2227506;58;1974;-69
2023/03/27 16:19:10;;;;;;;;;;;;;;;;;;2228452;66;1216;-69
2023/03/27 16:21:52;;;;;;;;;;;;;;;;;;2227991;66;1116;-69
2023/03/27 16:24:23;;;;;;;;;;;;;;;;;;2228314;66;1080;-69
2023/03/27 16:26:53;;;;;;;;;;;;;;;;;;2227844;58;1119;-69
2023/03/27 16:29:23;;;;;;;;;;;;;;;;;;2228101;66;1302;-69
2023/03/27 16:31:53;;;;;;;;;;;;;;;;;;2224482;66;1039;-70
2023/03/27 16:34:24;;;;;;;;;;;;;;;;;;2227950;66;1170;-69
2023/03/27 16:36:54;;;;;;;;;;;;;;;;;;2225961;66;1897;-69
2023/03/27 16:39:25;;;;;;;;;;;;;;;;;;2227480;66;1255;-69
2023/03/27 16:41:55;;;;;;;;;;;;;;;;;;2227697;66;1102;-69
2023/03/27 16:44:25;;;;;;;;;;;;;;;;;;2228334;58;1121;-69
2023/03/27 16:46:56;;;;;;;;;;;;;;;;;;2224909;66;1054;-69
2023/03/27 16:49:26;;;;;;;;;;;;;;;;;;2227885;66;1246;-69
2023/03/27 16:51:56;;;;;;;;;;;;;;;;;;2226955;66;1144;-69
2023/03/27 16:54:27;;;;;;;;;;;;;;;;;;2227894;66;1139;-70
2023/03/27 16:56:57;;;;;;;;;;;;;;;;;;2227972;66;1928;-69
2023/03/27 16:59:27;;;;;;;;;;;;;;;;;;2227785;66;1220;-69
2023/03/27 17:01:58;;;;;;;;;;;;;;;;;;2227028;66;1087;-69
2023/03/27 17:04:28;;;;;;;;;;;;;;;;;;2228361;66;1093;-69
2023/03/27 17:07:01;;;;;;;;;;;;;;;;;;2223992;66;1881;-69
2023/03/27 17:09:31;;;;;;;;;;;;;;;;;;2228417;66;1231;-69
2023/03/27 17:12:02;;;;;;;;;;;;;;;;;;2227579;66;1217;-69
2023/03/27 17:14:33;;;;;;;;;;;;;;;;;;2224176;59;1091;-68
2023/03/27 17:17:05;;;;;;;;;;;;;;;;;;2227154;58;1927;-69
2023/03/27 17:19:35;;;;;;;;;;;;;;;;;;2227399;66;1238;-69
2023/03/27 17:22:05;;;;;;;;;;;;;;;;;;2227328;66;1107;-69
2023/03/27 17:24:36;;;;;;;;;;;;;;;;;;2223467;66;1156;-70
2023/03/27 17:27:09;;;;;;;;;;;;;;;;;;2227425;66;1153;-69
2023/03/27 17:29:40;;;;;;;;;;;;;;;;;;2227278;66;1181;-69
2023/03/27 17:32:11;;;;;;;;;;;;;;;;;;2228051;66;1247;-68
2023/03/27 17:34:41;;;;;;;;;;;;;;;;;;2228331;66;1147;-69
2023/03/27 17:37:11;;;;;;;;;;;;;;;;;;2227535;59;1925;-69
2023/03/27 17:39:42;;;;;;;;;;;;;;;;;;2228657;66;1232;-69
2023/03/27 17:42:12;;;;;;;;;;;;;;;;;;2227574;66;1246;-69
2023/03/27 17:44:43;;;;;;;;;;;;;;;;;;2226187;58;1207;-69
2023/03/27 17:47:14;;;;;;;;;;;;;;;;;;2228444;66;1239;-69
2023/03/27 17:49:44;;;;;;;;;;;;;;;;;;2228234;66;1154;-69
2023/03/27 17:52:15;;;;;;;;;;;;;;;;;;2228180;66;1218;-69
2023/03/27 17:54:45;;;;;;;;;;;;;;;;;;2225212;59;1245;-69